Time,TemperatureF,DewpointF,PressureIn,WindDirection,WindDirectionDegrees,WindSpeedMPH,WindSpeedGustMPH,Humidity,HourlyPrecipIn,Conditions,Clouds,dailyrainin,SoftwareType,DateUTC
2013-12-09 00:03:00,28.5,27.3,30.38,NE,48,2.0,3.0,95,0.00,,,0.00,Wunderground v.1.15,2013-12-09 05:03:00,
2013-12-09 00:08:00,28.5,27.3,30.37,NE,50,2.0,2.0,95,0.00,,,0.00,Wunderground v.1.15,2013-12-09 05:08:00,
2013-12-09 00:13:00,28.6,27.4,30.37,NNE,29,2.0,2.0,95,0.00,,,0.00,Wunderground v.1.15,2013-12-09 05:13:00,
2013-12-09 00:23:00,28.6,27.4,30.36,NNE,30,2.0,2.0,95,0.00,,,0.00,Wunderground v.1.15,2013-12-09 05:23:00,
2013-12-09 00:28:00,28.6,27.4,30.36,NE,51,2.0,3.0,95,0.00,,,0.00,Wunderground v.1.15,2013-12-09 05:28:00,
2013-12-09 00:33:00,28.7,27.4,30.35,NNE,26,2.0,3.0,95,0.00,,,0.00,Wunderground v.1.15,2013-12-09 05:33:00,
2013-12-09 00:43:00,28.7,27.4,30.34,NE,35,2.0,2.0,95,0.00,,,0.00,Wunderground v.1.15,2013-12-09 05:43:00,
2013-12-09 00:48:00,28.8,27.5,30.34,NNE,23,2.0,2.0,95,0.00,,,0.00,Wunderground v.1.15,2013-12-09 05:48:00,
2013-12-09 00:58:00,28.9,27.6,30.34,NNE,26,2.0,2.0,95,0.00,,,0.00,Wunderground v.1.15,2013-12-09 05:58:00,
2013-12-09 01:08:00,28.9,27.6,30.33,North,9,2.0,2.0,95,0.00,,,0.00,Wunderground v.1.15,2013-12-09 06:08:00,
2013-12-09 01:13:00,28.9,27.6,30.32,NE,43,2.0,2.0,95,0.00,,,0.00,Wunderground v.1.15,2013-12-09 06:13:00,
2013-12-09 01:23:00,29.0,28.0,30.32,NE,53,1.0,4.0,96,0.00,,,0.00,Wunderground v.1.15,2013-12-09 06:23:00,
2013-12-09 01:33:00,29.0,28.0,30.32,NNE,28,2.0,2.0,96,0.00,,,0.00,Wunderground v.1.15,2013-12-09 06:33:00,
2013-12-09 01:43:00,29.0,28.0,30.31,NNE,29,2.0,2.0,96,0.00,,,0.00,Wunderground v.1.15,2013-12-09 06:43:00,
2013-12-09 01:53:00,29.1,28.1,30.31,NE,38,2.0,3.0,96,0.00,,,0.00,Wunderground v.1.15,2013-12-09 06:53:00,
2013-12-09 01:58:00,29.3,28.3,30.30,NE,44,2.0,2.0,96,0.00,,,0.00,Wunderground v.1.15,2013-12-09 06:58:00,
2013-12-09 02:08:00,29.3,28.3,30.30,NE,45,1.0,1.0,96,0.00,,,0.00,Wunderground v.1.15,2013-12-09 07:08:00,
2013-12-09 02:13:00,29.3,28.3,30.30,NE,45,1.0,1.0,96,0.00,,,0.00,Wunderground v.1.15,2013-12-09 07:13:00,
2013-12-09 02:23:00,29.5,28.5,30.30,NE,45,1.0,2.0,96,0.00,,,0.00,Wunderground v.1.15,2013-12-09 07:23:00,
2013-12-09 02:28:00,29.5,28.5,30.30,NE,45,1.0,1.0,96,0.00,,,0.00,Wunderground v.1.15,2013-12-09 07:28:00,
2013-12-09 02:38:00,29.6,28.6,30.28,NE,45,1.0,2.0,96,0.00,,,0.00,Wunderground v.1.15,2013-12-09 07:38:00,
2013-12-09 02:43:00,29.7,28.7,30.28,NNW,348,1.0,2.0,96,0.00,,,0.00,Wunderground v.1.15,2013-12-09 07:43:00,
2013-12-09 02:53:00,29.8,28.8,30.28,North,5,2.0,2.0,96,0.00,,,0.00,Wunderground v.1.15,2013-12-09 07:53:00,
2013-12-09 02:58:00,29.8,28.8,30.27,NE,34,1.0,2.0,96,0.00,,,0.00,Wunderground v.1.15,2013-12-09 07:58:00,
2013-12-09 03:07:00,29.9,28.9,30.27,NE,34,1.0,1.0,96,0.00,,,0.00,Wunderground v.1.15,2013-12-09 08:07:00,
2013-12-09 03:13:00,30.0,29.0,30.27,NE,34,1.0,1.0,96,0.00,,,0.00,Wunderground v.1.15,2013-12-09 08:13:00,
2013-12-09 03:22:00,30.1,29.1,30.25,NE,34,1.0,2.0,96,0.00,,,0.00,Wunderground v.1.15,2013-12-09 08:22:00,
2013-12-09 03:28:00,30.1,29.1,30.25,NE,34,1.0,2.0,96,0.00,,,0.00,Wunderground v.1.15,2013-12-09 08:28:00,
2013-12-09 03:37:00,30.3,29.3,30.24,NNE,25,1.0,2.0,96,0.00,,,0.00,Wunderground v.1.15,2013-12-09 08:37:00,
2013-12-09 03:43:00,30.4,29.4,30.23,NE,34,2.0,2.0,96,0.00,,,0.00,Wunderground v.1.15,2013-12-09 08:43:00,
2013-12-09 03:52:00,30.6,29.6,30.24,NNE,18,1.0,2.0,96,0.00,,,0.00,Wunderground v.1.15,2013-12-09 08:52:00,
2013-12-09 03:58:00,30.6,29.6,30.24,NNE,12,1.0,2.0,96,0.00,,,0.00,Wunderground v.1.15,2013-12-09 08:58:00,
2013-12-09 04:07:00,30.8,29.8,30.23,NNE,18,1.0,2.0,96,0.00,,,0.00,Wunderground v.1.15,2013-12-09 09:07:00,
2013-12-09 04:13:00,30.9,29.9,30.22,NNE,27,1.0,3.0,96,0.00,,,0.00,Wunderground v.1.15,2013-12-09 09:13:00,
2013-12-09 04:22:00,31.0,30.0,30.22,NNE,12,2.0,2.0,96,0.00,,,0.01,Wunderground v.1.15,2013-12-09 09:22:00,
2013-12-09 04:28:00,31.0,30.0,30.22,NNW,343,2.0,2.0,96,0.00,,,0.01,Wunderground v.1.15,2013-12-09 09:28:00,
2013-12-09 04:37:00,31.1,30.1,30.23,North,5,1.0,1.0,96,0.00,,,0.01,Wunderground v.1.15,2013-12-09 09:37:00,
2013-12-09 04:43:00,31.2,30.2,30.21,NNE,22,1.0,2.0,96,0.00,,,0.01,Wunderground v.1.15,2013-12-09 09:43:00,
2013-12-09 04:53:00,31.5,30.7,30.21,NNE,22,1.0,2.0,97,0.09,,,0.03,Wunderground v.1.15,2013-12-09 09:53:00,
2013-12-09 04:59:00,31.5,30.7,30.21,NNE,22,1.0,1.0,97,0.05,,,0.03,Wunderground v.1.15,2013-12-09 09:59:00,
2013-12-09 05:08:00,31.6,30.6,30.20,NNE,32,1.0,2.0,96,0.00,,,0.03,Wunderground v.1.15,2013-12-09 10:08:00,
2013-12-09 05:14:00,31.7,30.7,30.21,NNE,24,2.0,2.0,96,0.00,,,0.03,Wunderground v.1.15,2013-12-09 10:14:00,
2013-12-09 05:23:00,31.8,30.8,30.20,NE,46,1.0,1.0,96,0.00,,,0.04,Wunderground v.1.15,2013-12-09 10:23:00,
2013-12-09 05:28:00,31.8,30.8,30.20,NE,46,1.0,1.0,96,0.00,,,0.04,Wunderground v.1.15,2013-12-09 10:28:00,
2013-12-09 05:38:00,31.9,30.9,30.18,NE,38,1.0,1.0,96,0.04,,,0.05,Wunderground v.1.15,2013-12-09 10:38:00,
2013-12-09 05:43:00,32.0,31.0,30.20,North,360,1.0,1.0,96,0.04,,,0.05,Wunderground v.1.15,2013-12-09 10:43:00,
2013-12-09 05:53:00,32.1,31.1,30.21,North,355,1.0,1.0,96,0.04,,,0.06,Wunderground v.1.15,2013-12-09 10:53:00,
2013-12-09 05:58:00,32.2,31.2,30.21,North,10,1.0,1.0,96,0.04,,,0.06,Wunderground v.1.15,2013-12-09 10:58:00,
2013-12-09 06:08:00,32.1,31.1,30.21,NE,34,1.0,1.0,96,0.05,,,0.07,Wunderground v.1.15,2013-12-09 11:08:00,
2013-12-09 06:13:00,32.0,31.0,30.20,NE,36,2.0,2.0,96,0.05,,,0.07,Wunderground v.1.15,2013-12-09 11:13:00,
2013-12-09 06:23:00,32.0,31.0,30.18,ENE,60,1.0,2.0,96,0.12,,,0.09,Wunderground v.1.15,2013-12-09 11:23:00,
2013-12-09 06:28:00,32.1,31.1,30.19,North,5,1.0,1.0,96,0.11,,,0.09,Wunderground v.1.15,2013-12-09 11:28:00,
2013-12-09 06:38:00,32.1,31.1,30.19,NNE,22,1.0,1.0,96,0.04,,,0.09,Wunderground v.1.15,2013-12-09 11:38:00,
2013-12-09 06:43:00,32.1,31.1,30.18,NNE,22,1.0,1.0,96,0.00,,,0.09,Wunderground v.1.15,2013-12-09 11:43:00,
2013-12-09 06:53:00,32.2,31.2,30.18,NNE,22,0.0,0.0,96,0.00,,,0.09,Wunderground v.1.15,2013-12-09 11:53:00,
2013-12-09 06:58:00,32.3,31.3,30.17,NNE,22,0.0,0.0,96,0.00,,,0.09,Wunderground v.1.15,2013-12-09 11:58:00,
2013-12-09 07:08:00,32.3,31.3,30.17,NNE,22,0.0,0.0,96,0.00,,,0.09,Wunderground v.1.15,2013-12-09 12:08:00,
2013-12-09 07:13:00,32.3,31.3,30.17,NNE,22,0.0,0.0,96,0.00,,,0.09,Wunderground v.1.15,2013-12-09 12:13:00,
2013-12-09 07:23:00,32.3,31.3,30.16,NNE,22,1.0,1.0,96,0.00,,,0.09,Wunderground v.1.15,2013-12-09 12:23:00,
2013-12-09 07:28:00,32.2,31.2,30.17,NNE,22,1.0,1.0,96,0.00,,,0.09,Wunderground v.1.15,2013-12-09 12:28:00,
2013-12-09 07:38:00,32.3,31.3,30.17,NNE,22,0.0,0.0,96,0.00,,,0.10,Wunderground v.1.15,2013-12-09 12:38:00,
2013-12-09 07:43:00,32.3,31.3,30.16,NNE,22,1.0,1.0,96,0.00,,,0.10,Wunderground v.1.15,2013-12-09 12:43:00,
2013-12-09 07:53:00,32.3,31.3,30.15,NNE,26,0.0,1.0,96,0.07,,,0.11,Wunderground v.1.15,2013-12-09 12:53:00,
2013-12-09 07:58:00,32.3,31.3,30.15,NNE,20,1.0,1.0,96,0.04,,,0.11,Wunderground v.1.15,2013-12-09 12:58:00,
2013-12-09 08:08:00,32.3,31.3,30.14,NNE,20,0.0,0.0,96,0.00,,,0.11,Wunderground v.1.15,2013-12-09 13:08:00,
2013-12-09 08:13:00,32.3,31.5,30.14,North,350,0.0,0.0,97,0.00,,,0.11,Wunderground v.1.15,2013-12-09 13:13:00,
2013-12-09 08:23:00,32.4,31.6,30.14,NE,36,1.0,1.0,97,0.00,,,0.11,Wunderground v.1.15,2013-12-09 13:23:00,
2013-12-09 08:28:00,32.5,31.7,30.14,NE,36,1.0,1.0,97,0.00,,,0.11,Wunderground v.1.15,2013-12-09 13:28:00,
2013-12-09 08:38:00,32.5,31.7,30.14,North,355,0.0,0.0,97,0.00,,,0.11,Wunderground v.1.15,2013-12-09 13:38:00,
2013-12-09 08:43:00,32.6,31.8,30.13,North,355,0.0,0.0,97,0.00,,,0.11,Wunderground v.1.15,2013-12-09 13:43:00,
2013-12-09 08:53:00,32.6,31.8,30.11,North,355,0.0,0.0,97,0.00,,,0.11,Wunderground v.1.15,2013-12-09 13:53:00,
2013-12-09 08:58:00,32.6,31.8,30.13,North,355,0.0,0.0,97,0.00,,,0.11,Wunderground v.1.15,2013-12-09 13:58:00,
2013-12-09 09:08:00,32.9,32.1,30.13,North,355,0.0,0.0,97,0.00,,,0.11,Wunderground v.1.15,2013-12-09 14:08:00,
2013-12-09 09:13:00,32.9,32.1,30.13,North,355,0.0,0.0,97,0.00,,,0.11,Wunderground v.1.15,2013-12-09 14:13:00,
2013-12-09 09:23:00,32.9,32.1,30.14,North,355,0.0,0.0,97,0.00,,,0.11,Wunderground v.1.15,2013-12-09 14:23:00,
2013-12-09 09:28:00,32.9,32.1,30.14,NNW,338,0.0,0.0,97,0.00,,,0.11,Wunderground v.1.15,2013-12-09 14:28:00,
2013-12-09 09:38:00,32.8,32.0,30.13,NNW,338,0.0,0.0,97,0.14,,,0.13,Wunderground v.1.15,2013-12-09 14:38:00,
2013-12-09 09:43:00,32.8,32.0,30.13,NNW,338,0.0,0.0,97,0.08,,,0.13,Wunderground v.1.15,2013-12-09 14:43:00,
2013-12-09 09:53:00,32.8,32.0,30.13,NNW,338,0.0,0.0,97,0.00,,,0.13,Wunderground v.1.15,2013-12-09 14:53:00,
2013-12-09 09:58:00,32.8,32.0,30.14,NNW,338,0.0,0.0,97,0.00,,,0.13,Wunderground v.1.15,2013-12-09 14:58:00,
2013-12-09 10:08:00,33.0,32.2,30.14,NNW,338,0.0,0.0,97,0.00,,,0.13,Wunderground v.1.15,2013-12-09 15:08:00,
2013-12-09 10:13:00,33.1,32.3,30.14,NNW,338,0.0,0.0,97,0.00,,,0.13,Wunderground v.1.15,2013-12-09 15:13:00,
2013-12-09 10:23:00,33.0,32.2,30.13,NNW,338,0.0,0.0,97,0.00,,,0.13,Wunderground v.1.15,2013-12-09 15:23:00,
2013-12-09 10:28:00,32.9,32.1,30.12,NNW,338,0.0,0.0,97,0.00,,,0.13,Wunderground v.1.15,2013-12-09 15:28:00,
2013-12-09 10:38:00,32.8,32.0,30.11,North,9,0.0,1.0,97,0.00,,,0.14,Wunderground v.1.15,2013-12-09 15:38:00,
2013-12-09 10:43:00,32.8,32.0,30.11,North,9,0.0,1.0,97,0.00,,,0.14,Wunderground v.1.15,2013-12-09 15:43:00,
2013-12-09 10:52:00,32.9,32.1,30.10,North,9,0.0,0.0,97,0.04,,,0.15,Wunderground v.1.15,2013-12-09 15:52:00,
2013-12-09 10:58:00,32.9,32.1,30.09,North,9,0.0,0.0,97,0.04,,,0.15,Wunderground v.1.15,2013-12-09 15:58:00,
2013-12-09 11:07:00,33.0,32.2,30.09,North,9,0.0,0.0,97,0.04,,,0.15,Wunderground v.1.15,2013-12-09 16:07:00,
2013-12-09 11:13:00,33.1,32.3,30.08,North,9,0.0,0.0,97,0.00,,,0.15,Wunderground v.1.15,2013-12-09 16:13:00,
2013-12-09 11:22:00,33.1,32.3,30.07,North,9,0.0,0.0,97,0.00,,,0.15,Wunderground v.1.15,2013-12-09 16:22:00,
2013-12-09 11:28:00,33.1,32.3,30.07,North,9,0.0,0.0,97,0.00,,,0.15,Wunderground v.1.15,2013-12-09 16:28:00,
2013-12-09 11:37:00,33.1,32.3,30.06,NNE,24,0.0,0.0,97,0.00,,,0.16,Wunderground v.1.15,2013-12-09 16:37:00,
2013-12-09 11:43:00,33.3,32.5,30.05,NNE,24,0.0,0.0,97,0.08,,,0.17,Wunderground v.1.15,2013-12-09 16:43:00,
2013-12-09 11:53:00,33.1,32.3,30.06,NNE,24,0.0,0.0,97,0.06,,,0.17,Wunderground v.1.15,2013-12-09 16:53:00,
2013-12-09 11:58:00,33.1,32.3,30.05,NNE,24,0.0,0.0,97,0.04,,,0.17,Wunderground v.1.15,2013-12-09 16:58:00,
2013-12-09 12:08:00,33.3,32.5,30.05,NNE,24,0.0,0.0,97,0.00,,,0.17,Wunderground v.1.15,2013-12-09 17:08:00,
2013-12-09 12:13:00,33.3,32.5,30.05,NNE,24,0.0,0.0,97,0.00,,,0.17,Wunderground v.1.15,2013-12-09 17:13:00,
2013-12-09 12:23:00,33.5,32.7,30.05,NNE,24,0.0,0.0,97,0.00,,,0.18,Wunderground v.1.15,2013-12-09 17:23:00,
2013-12-09 12:28:00,34.4,33.9,30.05,NNE,24,0.0,0.0,98,0.00,,,0.18,Wunderground v.1.15,2013-12-09 17:28:00,
2013-12-09 12:38:00,34.1,33.6,30.04,NNE,24,0.0,0.0,98,0.05,,,0.19,Wunderground v.1.15,2013-12-09 17:38:00,
2013-12-09 12:43:00,34.1,33.6,30.04,NNE,24,0.0,0.0,98,0.04,,,0.19,Wunderground v.1.15,2013-12-09 17:43:00,
2013-12-09 12:53:00,33.8,33.0,30.04,NNE,24,0.0,0.0,97,0.00,,,0.19,Wunderground v.1.15,2013-12-09 17:53:00,
2013-12-09 12:58:00,33.7,32.9,30.04,NNE,24,0.0,0.0,97,0.00,,,0.19,Wunderground v.1.15,2013-12-09 17:58:00,
2013-12-09 13:08:00,33.6,32.8,30.03,NNE,24,0.0,0.0,97,0.00,,,0.19,Wunderground v.1.15,2013-12-09 18:08:00,
2013-12-09 13:13:00,33.7,32.9,30.03,NNE,24,0.0,0.0,97,0.00,,,0.20,Wunderground v.1.15,2013-12-09 18:13:00,
2013-12-09 13:23:00,33.9,33.1,30.02,NNE,24,0.0,0.0,97,0.05,,,0.21,Wunderground v.1.15,2013-12-09 18:23:00,
2013-12-09 13:33:00,34.0,33.2,30.02,NNE,24,0.0,0.0,97,0.05,,,0.21,Wunderground v.1.15,2013-12-09 18:33:00,
2013-12-09 13:43:00,33.8,33.0,30.02,NNE,24,0.0,0.0,97,0.00,,,0.21,Wunderground v.1.15,2013-12-09 18:43:00,
2013-12-09 13:53:00,33.9,33.1,30.02,NNE,24,0.0,0.0,97,0.00,,,0.21,Wunderground v.1.15,2013-12-09 18:53:00,
2013-12-09 13:58:00,34.0,33.2,30.02,NNE,24,0.0,0.0,97,0.00,,,0.22,Wunderground v.1.15,2013-12-09 18:58:00,
2013-12-09 14:08:00,33.7,32.9,30.02,NNE,24,0.0,0.0,97,0.00,,,0.22,Wunderground v.1.15,2013-12-09 19:08:00,
2013-12-09 14:13:00,33.7,32.9,30.02,NNE,24,0.0,0.0,97,0.04,,,0.23,Wunderground v.1.15,2013-12-09 19:13:00,
2013-12-09 14:23:00,33.7,32.9,30.02,NNE,24,0.0,0.0,97,0.04,,,0.23,Wunderground v.1.15,2013-12-09 19:23:00,
2013-12-09 14:28:00,34.0,33.2,30.02,NNE,24,0.0,0.0,97,0.00,,,0.23,Wunderground v.1.15,2013-12-09 19:28:00,
2013-12-09 14:38:00,34.1,33.3,30.03,NNE,24,0.0,0.0,97,0.00,,,0.23,Wunderground v.1.15,2013-12-09 19:38:00,
2013-12-09 14:43:00,34.2,33.7,30.03,NNE,24,0.0,0.0,98,0.00,,,0.23,Wunderground v.1.15,2013-12-09 19:43:00,
2013-12-09 14:53:00,34.2,33.7,30.03,NNE,24,0.0,0.0,98,0.00,,,0.24,Wunderground v.1.15,2013-12-09 19:53:00,
2013-12-09 14:58:00,34.1,33.3,30.02,NNE,24,0.0,0.0,97,0.00,,,0.24,Wunderground v.1.15,2013-12-09 19:58:00,
2013-12-09 15:08:00,34.0,33.2,30.03,NNE,24,0.0,0.0,97,0.00,,,0.25,Wunderground v.1.15,2013-12-09 20:08:00,
2013-12-09 15:13:00,33.9,33.1,30.03,NNE,24,0.0,0.0,97,0.00,,,0.25,Wunderground v.1.15,2013-12-09 20:13:00,
2013-12-09 15:23:00,34.1,33.3,30.03,NNE,24,0.0,0.0,97,0.00,,,0.25,Wunderground v.1.15,2013-12-09 20:23:00,
2013-12-09 15:28:00,34.0,33.2,30.03,NNE,24,0.0,0.0,97,0.00,,,0.25,Wunderground v.1.15,2013-12-09 20:28:00,
2013-12-09 15:38:00,34.0,33.2,30.03,NNE,24,0.0,0.0,97,0.00,,,0.25,Wunderground v.1.15,2013-12-09 20:38:00,
2013-12-09 15:43:00,34.0,33.2,30.03,NNE,24,0.0,0.0,97,0.00,,,0.25,Wunderground v.1.15,2013-12-09 20:43:00,
2013-12-09 15:53:00,33.9,33.1,30.02,NNE,24,0.0,0.0,97,0.00,,,0.25,Wunderground v.1.15,2013-12-09 20:53:00,
2013-12-09 15:58:00,33.9,33.1,30.02,NNE,24,0.0,0.0,97,0.00,,,0.25,Wunderground v.1.15,2013-12-09 20:58:00,
2013-12-09 16:08:00,33.9,33.1,30.02,NNE,24,0.0,0.0,97,0.00,,,0.25,Wunderground v.1.15,2013-12-09 21:08:00,
2013-12-09 16:13:00,33.9,33.1,30.02,NNE,24,0.0,0.0,97,0.00,,,0.25,Wunderground v.1.15,2013-12-09 21:13:00,
2013-12-09 16:23:00,33.9,33.1,30.02,NNE,24,0.0,1.0,97,0.00,,,0.26,Wunderground v.1.15,2013-12-09 21:23:00,
2013-12-09 16:28:00,33.9,33.1,30.02,NNE,24,0.0,0.0,97,0.00,,,0.26,Wunderground v.1.15,2013-12-09 21:28:00,
2013-12-09 16:38:00,34.0,33.2,30.02,NNE,24,0.0,1.0,97,0.00,,,0.26,Wunderground v.1.15,2013-12-09 21:38:00,
2013-12-09 16:43:00,34.0,33.2,30.02,SSW,194,1.0,1.0,97,0.00,,,0.26,Wunderground v.1.15,2013-12-09 21:43:00,
2013-12-09 16:53:00,34.2,33.7,30.02,SSW,193,1.0,1.0,98,0.00,,,0.26,Wunderground v.1.15,2013-12-09 21:53:00,
2013-12-09 16:58:00,34.2,33.7,30.02,SSW,201,1.0,2.0,98,0.00,,,0.26,Wunderground v.1.15,2013-12-09 21:58:00,
2013-12-09 17:08:00,34.3,33.8,30.03,SW,221,1.0,1.0,98,0.00,,,0.26,Wunderground v.1.15,2013-12-09 22:08:00,
2013-12-09 17:13:00,34.3,33.8,30.03,WSW,244,1.0,1.0,98,0.00,,,0.26,Wunderground v.1.15,2013-12-09 22:13:00,
2013-12-09 17:22:00,34.3,33.8,30.03,WSW,240,1.0,1.0,98,0.00,,,0.27,Wunderground v.1.15,2013-12-09 22:22:00,
2013-12-09 17:28:00,34.4,33.9,30.03,WSW,240,0.0,0.0,98,0.00,,,0.27,Wunderground v.1.15,2013-12-09 22:28:00,
2013-12-09 17:38:00,34.3,33.8,30.03,SW,219,0.0,0.0,98,0.00,,,0.27,Wunderground v.1.15,2013-12-09 22:38:00,
2013-12-09 17:43:00,34.3,33.8,30.03,SSW,207,0.0,0.0,98,0.00,,,0.27,Wunderground v.1.15,2013-12-09 22:43:00,
2013-12-09 17:52:00,34.3,33.8,30.02,SSW,207,1.0,1.0,98,0.00,,,0.27,Wunderground v.1.15,2013-12-09 22:52:00,
2013-12-09 17:58:00,34.3,33.8,30.02,SSW,207,1.0,1.0,98,0.00,,,0.27,Wunderground v.1.15,2013-12-09 22:58:00,
2013-12-09 18:07:00,34.3,33.8,30.02,SSW,205,1.0,1.0,98,0.00,,,0.27,Wunderground v.1.15,2013-12-09 23:07:00,
2013-12-09 18:13:00,34.3,33.8,30.03,SSW,205,1.0,1.0,98,0.00,,,0.27,Wunderground v.1.15,2013-12-09 23:13:00,
2013-12-09 18:22:00,34.4,33.9,30.03,SSW,198,1.0,5.0,98,0.00,,,0.27,Wunderground v.1.15,2013-12-09 23:22:00,
2013-12-09 18:28:00,34.4,33.9,30.04,WSW,252,1.0,1.0,98,0.00,,,0.27,Wunderground v.1.15,2013-12-09 23:28:00,
2013-12-09 18:37:00,34.6,34.1,30.04,WSW,243,1.0,1.0,98,0.00,,,0.27,Wunderground v.1.15,2013-12-09 23:37:00,
2013-12-09 18:43:00,34.6,34.1,30.04,SW,226,1.0,1.0,98,0.00,,,0.27,Wunderground v.1.15,2013-12-09 23:43:00,
2013-12-09 18:53:00,34.6,34.1,30.05,WSW,244,1.0,1.0,98,0.00,,,0.27,Wunderground v.1.15,2013-12-09 23:53:00,
2013-12-09 18:59:00,34.6,34.1,30.05,SSW,196,1.0,3.0,98,0.00,,,0.27,Wunderground v.1.15,2013-12-09 23:59:00,
2013-12-09 19:08:00,34.6,34.1,30.05,WSW,251,1.0,1.0,98,0.00,,,0.27,Wunderground v.1.15,2013-12-10 00:08:00,
2013-12-09 19:14:00,34.6,34.1,30.05,SSW,196,1.0,1.0,98,0.00,,,0.27,Wunderground v.1.15,2013-12-10 00:14:00,
2013-12-09 19:23:00,34.6,34.1,30.05,SW,219,2.0,2.0,98,0.00,,,0.28,Wunderground v.1.15,2013-12-10 00:23:00,
2013-12-09 19:29:00,34.5,34.0,30.06,WSW,242,2.0,2.0,98,0.00,,,0.28,Wunderground v.1.15,2013-12-10 00:29:00,
2013-12-09 19:38:00,34.5,33.7,30.06,SSW,193,1.0,1.0,97,0.00,,,0.28,Wunderground v.1.15,2013-12-10 00:38:00,
2013-12-09 19:44:00,34.5,34.0,30.06,SSW,193,1.0,2.0,98,0.00,,,0.28,Wunderground v.1.15,2013-12-10 00:44:00,
2013-12-09 19:53:00,34.5,34.0,30.06,SSW,193,1.0,1.0,98,0.00,,,0.28,Wunderground v.1.15,2013-12-10 00:53:00,
2013-12-09 19:59:00,34.5,33.7,30.06,SSW,193,1.0,1.0,97,0.00,,,0.28,Wunderground v.1.15,2013-12-10 00:59:00,
2013-12-09 20:08:00,34.4,33.9,30.06,SSW,193,1.0,1.0,98,0.00,,,0.28,Wunderground v.1.15,2013-12-10 01:08:00,
2013-12-09 20:13:00,34.3,33.8,30.06,SSW,193,1.0,1.0,98,0.00,,,0.28,Wunderground v.1.15,2013-12-10 01:13:00,
2013-12-09 20:23:00,34.1,33.6,30.06,SSW,193,0.0,1.0,98,0.00,,,0.28,Wunderground v.1.15,2013-12-10 01:23:00,
2013-12-09 20:28:00,34.0,33.2,30.06,SSW,193,0.0,0.0,97,0.00,,,0.28,Wunderground v.1.15,2013-12-10 01:28:00,
2013-12-09 20:38:00,33.9,33.1,30.06,SSW,193,0.0,0.0,97,0.00,,,0.28,Wunderground v.1.15,2013-12-10 01:38:00,
2013-12-09 20:43:00,33.9,33.1,30.06,SSW,193,0.0,2.0,97,0.00,,,0.28,Wunderground v.1.15,2013-12-10 01:43:00,
2013-12-09 20:53:00,33.9,33.1,30.06,SSW,193,1.0,1.0,97,0.00,,,0.28,Wunderground v.1.15,2013-12-10 01:53:00,
2013-12-09 20:58:00,34.0,33.2,30.05,SSW,193,0.0,0.0,97,0.00,,,0.28,Wunderground v.1.15,2013-12-10 01:58:00,
2013-12-09 21:08:00,34.1,33.3,30.05,SSW,193,0.0,0.0,97,0.00,,,0.28,Wunderground v.1.15,2013-12-10 02:08:00,
2013-12-09 21:13:00,34.1,33.3,30.05,SSW,193,0.0,1.0,97,0.00,,,0.28,Wunderground v.1.15,2013-12-10 02:13:00,
2013-12-09 21:23:00,34.0,33.2,30.05,SSW,193,0.0,1.0,97,0.00,,,0.28,Wunderground v.1.15,2013-12-10 02:23:00,
2013-12-09 21:28:00,33.9,33.1,30.05,SSW,193,0.0,1.0,97,0.00,,,0.28,Wunderground v.1.15,2013-12-10 02:28:00,
2013-12-09 21:38:00,33.9,33.1,30.04,SSW,193,0.0,0.0,97,0.00,,,0.28,Wunderground v.1.15,2013-12-10 02:38:00,
2013-12-09 21:43:00,33.8,33.3,30.04,SSW,193,0.0,0.0,98,0.00,,,0.28,Wunderground v.1.15,2013-12-10 02:43:00,
2013-12-09 21:53:00,33.8,33.3,30.05,SSW,193,1.0,1.0,98,0.00,,,0.28,Wunderground v.1.15,2013-12-10 02:53:00,
2013-12-09 21:58:00,33.7,33.2,30.05,SSW,193,0.0,0.0,98,0.00,,,0.28,Wunderground v.1.15,2013-12-10 02:58:00,
2013-12-09 22:08:00,33.6,33.1,30.05,SSW,193,0.0,1.0,98,0.00,,,0.28,Wunderground v.1.15,2013-12-10 03:08:00,
2013-12-09 22:13:00,33.7,33.2,30.05,SSW,193,0.0,1.0,98,0.00,,,0.28,Wunderground v.1.15,2013-12-10 03:13:00,
2013-12-09 22:23:00,33.6,33.1,30.05,SSW,193,0.0,0.0,98,0.00,,,0.28,Wunderground v.1.15,2013-12-10 03:23:00,
2013-12-09 22:28:00,33.7,33.2,30.05,SSW,193,0.0,0.0,98,0.00,,,0.28,Wunderground v.1.15,2013-12-10 03:28:00,
2013-12-09 22:38:00,33.5,33.0,30.05,SSW,193,0.0,0.0,98,0.00,,,0.28,Wunderground v.1.15,2013-12-10 03:38:00,
2013-12-09 22:43:00,33.4,32.6,30.05,SSW,193,0.0,2.0,97,0.00,,,0.28,Wunderground v.1.15,2013-12-10 03:43:00,
2013-12-09 22:53:00,33.2,32.4,30.05,SSW,193,0.0,0.0,97,0.00,,,0.28,Wunderground v.1.15,2013-12-10 03:53:00,
2013-12-09 22:58:00,33.2,32.4,30.05,SSW,193,0.0,0.0,97,0.00,,,0.28,Wunderground v.1.15,2013-12-10 03:58:00,
2013-12-09 23:08:00,33.0,32.2,30.05,SSW,193,0.0,0.0,97,0.00,,,0.28,Wunderground v.1.15,2013-12-10 04:08:00,
2013-12-09 23:13:00,33.0,32.2,30.05,SSW,193,0.0,0.0,97,0.00,,,0.28,Wunderground v.1.15,2013-12-10 04:13:00,
2013-12-09 23:22:00,32.9,32.1,30.04,SSW,193,0.0,0.0,97,0.00,,,0.28,Wunderground v.1.15,2013-12-10 04:22:00,
2013-12-09 23:28:00,32.7,31.9,30.04,SSW,193,0.0,0.0,97,0.00,,,0.28,Wunderground v.1.15,2013-12-10 04:28:00,
2013-12-09 23:37:00,32.5,31.7,30.04,SSW,193,0.0,0.0,97,0.00,,,0.28,Wunderground v.1.15,2013-12-10 04:37:00,
2013-12-09 23:43:00,32.4,31.6,30.03,SSW,193,0.0,0.0,97,0.00,,,0.28,Wunderground v.1.15,2013-12-10 04:43:00,
2013-12-09 23:52:00,32.2,31.4,30.04,SSW,193,0.0,0.0,97,0.00,,,0.28,Wunderground v.1.15,2013-12-10 04:52:00,
2013-12-09 23:58:00,32.1,31.3,30.04,SSW,193,0.0,0.0,97,0.00,,,0.28,Wunderground v.1.15,2013-12-10 04:58:00,